Time;durP1;ratioP1;P1;durP2;ratioP2;P2;SDS_P1;SDS_P2;PMS_P1;PMS_P2;Temp;Humidity;BMP_temperature;BMP_pressure;BME280_temperature;BME280_humidity;BME280_pressure;Samples;Min_cycle;Max_cycle;Signal;HPM_P1;HPM_P2
2023/01/23 00:04:54;;;;;;;18.00;8.32;;;;;;;;;;10621428;27;20046;-74
2023/01/23 00:09:55;;;;;;;18.52;9.10;;;;;;;;;;10619028;27;20712;-74
2023/01/23 00:14:55;;;;;;;21.75;9.38;;;;;;;;;;10594041;27;20395;-75
2023/01/23 00:19:58;;;;;;;17.60;9.02;;;;;;;;;;10619016;27;20042;-73
2023/01/23 00:24:58;;;;;;;17.92;9.40;;;;;;;;;;10623203;27;20047;-75
2023/01/23 00:29:59;;;;;;;18.10;9.20;;;;;;;;;;10604998;27;20378;-75
2023/01/23 00:34:59;;;;;;;17.77;8.98;;;;;;;;;;10615003;27;20157;-75
2023/01/23 00:40:00;;;;;;;18.42;8.80;;;;;;;;;;10621426;27;20031;-74
2023/01/23 00:45:00;;;;;;;17.98;9.77;;;;;;;;;;10599359;27;20636;-76
2023/01/23 00:50:02;;;;;;;18.50;9.25;;;;;;;;;;10604583;27;20030;-76
2023/01/23 00:55:04;;;;;;;16.98;9.05;;;;;;;;;;10609183;27;20035;-74
2023/01/23 01:00:04;;;;;;;19.38;9.63;;;;;;;;;;10594112;27;20479;-76
2023/01/23 01:05:05;;;;;;;18.30;9.45;;;;;;;;;;10578255;27;20053;-75
2023/01/23 01:10:06;;;;;;;17.02;9.38;;;;;;;;;;10588225;27;20721;-76
2023/01/23 01:15:09;;;;;;;18.23;9.65;;;;;;;;;;10601955;27;20109;-75
2023/01/23 01:20:09;;;;;;;18.52;9.25;;;;;;;;;;10619807;27;20395;-77
2023/01/23 01:25:10;;;;;;;16.45;9.15;;;;;;;;;;10591658;27;20043;-75
2023/01/23 01:30:11;;;;;;;16.73;9.90;;;;;;;;;;10614914;27;20057;-74
2023/01/23 01:35:11;;;;;;;17.98;9.63;;;;;;;;;;10604638;27;20035;-77
2023/01/23 01:40:14;;;;;;;17.92;8.80;;;;;;;;;;10604354;27;20059;-75
2023/01/23 01:45:33;;;;;;;18.75;9.68;;;;;;;;;;10615931;27;20048;-74
2023/01/23 01:50:34;;;;;;;19.42;9.77;;;;;;;;;;10608520;27;20031;-74
2023/01/23 01:55:36;;;;;;;20.07;9.50;;;;;;;;;;10604342;27;20038;-75
2023/01/23 02:00:37;;;;;;;19.33;8.98;;;;;;;;;;10613743;27;20039;-75
2023/01/23 02:05:42;;;;;;;18.25;9.75;;;;;;;;;;10598754;27;20087;-76
2023/01/23 02:10:44;;;;;;;17.73;9.00;;;;;;;;;;10589326;27;20509;-77
2023/01/23 02:15:45;;;;;;;18.13;9.73;;;;;;;;;;10619622;27;20231;-75
2023/01/23 02:20:46;;;;;;;22.13;10.02;;;;;;;;;;10620862;27;20625;-79
2023/01/23 02:25:58;;;;;;;20.98;10.15;;;;;;;;;;10577112;27;20085;-77
2023/01/23 02:31:00;;;;;;;19.92;10.18;;;;;;;;;;10610630;27;20038;-77
2023/01/23 02:36:04;;;;;;;22.30;9.75;;;;;;;;;;10606515;27;20034;-75
2023/01/23 02:41:10;;;;;;;22.50;11.18;;;;;;;;;;10621853;27;20043;-75
2023/01/23 02:46:10;;;;;;;22.65;10.38;;;;;;;;;;10614120;27;20049;-74
2023/01/23 02:51:11;;;;;;;18.13;9.70;;;;;;;;;;10617177;27;20058;-73
2023/01/23 02:56:13;;;;;;;20.58;9.70;;;;;;;;;;10604249;27;20038;-76
2023/01/23 03:01:13;;;;;;;22.88;10.68;;;;;;;;;;10609133;27;20038;-76
2023/01/23 03:06:14;;;;;;;21.48;10.27;;;;;;;;;;10617033;27;20466;-74
2023/01/23 03:11:18;;;;;;;20.15;10.13;;;;;;;;;;10614191;27;20055;-76
2023/01/23 03:16:18;;;;;;;22.33;11.73;;;;;;;;;;10599656;27;20597;-76
2023/01/23 03:21:19;;;;;;;28.10;11.82;;;;;;;;;;10591733;27;20040;-75
2023/01/23 03:26:20;;;;;;;22.20;10.02;;;;;;;;;;10612231;27;20043;-76
2023/01/23 03:31:21;;;;;;;20.60;11.35;;;;;;;;;;10623484;27;20566;-76
2023/01/23 03:36:22;;;;;;;22.65;9.88;;;;;;;;;;10611386;27;20042;-76
2023/01/23 03:41:26;;;;;;;25.15;11.45;;;;;;;;;;10581957;27;20054;-75
2023/01/23 03:46:29;;;;;;;20.88;10.65;;;;;;;;;;10596204;27;20031;-74
2023/01/23 03:51:33;;;;;;;23.33;10.80;;;;;;;;;;10582399;27;20078;-75
2023/01/23 03:56:34;;;;;;;23.65;11.02;;;;;;;;;;10590645;27;20046;-76
2023/01/23 04:01:36;;;;;;;20.75;10.32;;;;;;;;;;10567231;27;20049;-75
2023/01/23 04:06:37;;;;;;;23.35;11.85;;;;;;;;;;10596758;27;20042;-74
2023/01/23 04:11:38;;;;;;;23.65;10.82;;;;;;;;;;10599695;27;20407;-76
2023/01/23 04:16:40;;;;;;;20.58;10.80;;;;;;;;;;10577389;27;20035;-76
2023/01/23 04:21:41;;;;;;;22.08;10.57;;;;;;;;;;10594779;27;20039;-75
2023/01/23 04:26:41;;;;;;;22.27;10.85;;;;;;;;;;10599182;27;20035;-77
2023/01/23 04:31:42;;;;;;;20.63;10.27;;;;;;;;;;10601070;27;20037;-75
2023/01/23 04:36:43;;;;;;;19.67;10.25;;;;;;;;;;10632445;27;20129;-76
2023/01/23 04:41:43;;;;;;;19.02;9.98;;;;;;;;;;10620781;27;20047;-75
2023/01/23 04:46:58;;;;;;;20.08;10.32;;;;;;;;;;10593909;27;20581;-75
2023/01/23 04:52:01;;;;;;;18.38;10.48;;;;;;;;;;10633348;27;20754;-76
2023/01/23 04:57:05;;;;;;;20.35;10.32;;;;;;;;;;10613492;27;20035;-75
2023/01/23 05:02:08;;;;;;;18.88;9.90;;;;;;;;;;10616903;27;20038;-74
2023/01/23 05:07:14;;;;;;;19.58;10.23;;;;;;;;;;10589129;27;20491;-74
2023/01/23 05:12:24;;;;;;;17.52;9.70;;;;;;;;;;10590188;27;20470;-74
2023/01/23 05:17:24;;;;;;;21.30;10.10;;;;;;;;;;10600176;27;20031;-76
2023/01/23 05:22:27;;;;;;;19.20;9.50;;;;;;;;;;10622410;27;20039;-77
2023/01/23 05:27:27;;;;;;;17.00;9.07;;;;;;;;;;10608283;27;20039;-78
2023/01/23 05:32:28;;;;;;;20.55;10.68;;;;;;;;;;10607214;27;20041;-77
2023/01/23 05:37:51;;;;;;;22.20;11.05;;;;;;;;;;10595748;27;20132;-75
2023/01/23 05:42:55;;;;;;;24.10;10.93;;;;;;;;;;10601368;27;20047;-78
2023/01/23 05:48:19;;;;;;;19.95;10.00;;;;;;;;;;10590687;27;20424;-76
2023/01/23 05:53:20;;;;;;;20.02;8.93;;;;;;;;;;10604332;27;20066;-75
2023/01/23 05:58:20;;;;;;;19.42;9.75;;;;;;;;;;10589181;27;20039;-76
2023/01/23 06:03:48;;;;;;;17.95;8.80;;;;;;;;;;10598973;27;20146;-76
2023/01/23 06:09:07;;;;;;;19.17;10.07;;;;;;;;;;10600904;27;20254;-78
2023/01/23 06:14:10;;;;;;;25.33;11.32;;;;;;;;;;10605535;27;20808;-76
2023/01/23 06:19:11;;;;;;;18.02;9.55;;;;;;;;;;10618147;27;20049;-76
2023/01/23 06:24:12;;;;;;;16.20;8.80;;;;;;;;;;10582261;27;20069;-77
2023/01/23 06:29:12;;;;;;;18.08;8.73;;;;;;;;;;10616505;27;20146;-76
2023/01/23 06:34:13;;;;;;;20.58;9.57;;;;;;;;;;10619939;27;20107;-76
2023/01/23 06:39:18;;;;;;;18.45;9.88;;;;;;;;;;10583710;27;20060;-75
2023/01/23 06:44:19;;;;;;;16.65;9.05;;;;;;;;;;10608581;27;20047;-74
2023/01/23 06:49:20;;;;;;;18.02;9.30;;;;;;;;;;10602250;27;20043;-75
2023/01/23 06:54:21;;;;;;;19.52;9.90;;;;;;;;;;10602626;27;20027;-75
2023/01/23 06:59:24;;;;;;;19.87;9.43;;;;;;;;;;10581175;27;20035;-75
2023/01/23 07:04:24;;;;;;;17.17;9.02;;;;;;;;;;10601468;27;20043;-75
2023/01/23 07:09:25;;;;;;;18.67;9.02;;;;;;;;;;10588189;27;20038;-76
2023/01/23 07:14:36;;;;;;;21.52;11.23;;;;;;;;;;10587429;27;20126;-75
2023/01/23 07:19:40;;;;;;;20.00;10.30;;;;;;;;;;10583763;27;20039;-78
2023/01/23 07:24:44;;;;;;;18.00;9.85;;;;;;;;;;10595281;27;20057;-76
2023/01/23 07:29:44;;;;;;;19.13;9.95;;;;;;;;;;10615508;27;20035;-76
2023/01/23 07:34:45;;;;;;;18.08;9.32;;;;;;;;;;10572693;27;20041;-75
2023/01/23 07:39:46;;;;;;;19.25;10.00;;;;;;;;;;10600113;27;20631;-77
2023/01/23 07:44:46;;;;;;;18.40;9.85;;;;;;;;;;10616718;27;20128;-77
2023/01/23 07:49:47;;;;;;;24.58;9.05;;;;;;;;;;10604182;27;20035;-76
2023/01/23 07:54:47;;;;;;;20.50;9.93;;;;;;;;;;10591310;27;20128;-75
2023/01/23 07:59:48;;;;;;;18.88;9.77;;;;;;;;;;10610009;27;20062;-77
2023/01/23 08:04:49;;;;;;;18.30;9.82;;;;;;;;;;10609274;27;20051;-74
2023/01/23 08:09:50;;;;;;;20.48;10.30;;;;;;;;;;10626384;27;20051;-76
2023/01/23 08:14:50;;;;;;;18.08;9.32;;;;;;;;;;10616512;27;20521;-76
2023/01/23 08:19:51;;;;;;;24.25;10.52;;;;;;;;;;10579437;27;20039;-75
2023/01/23 08:24:51;;;;;;;20.00;10.75;;;;;;;;;;10598351;27;20112;-77
2023/01/23 08:29:53;;;;;;;16.83;9.75;;;;;;;;;;10600811;27;20027;-77
2023/01/23 08:34:54;;;;;;;18.73;10.05;;;;;;;;;;10619899;27;20125;-76
2023/01/23 08:39:56;;;;;;;19.80;10.23;;;;;;;;;;10592022;27;20035;-76
2023/01/23 08:44:58;;;;;;;21.38;11.60;;;;;;;;;;10599965;27;20186;-77
2023/01/23 08:49:59;;;;;;;21.75;11.23;;;;;;;;;;10609971;27;20072;-76
2023/01/23 08:55:00;;;;;;;21.77;12.20;;;;;;;;;;10618247;27;20375;-76
2023/01/23 09:00:00;;;;;;;19.60;10.77;;;;;;;;;;10619576;27;20027;-75
2023/01/23 09:05:01;;;;;;;18.30;10.02;;;;;;;;;;10600327;27;20047;-77
2023/01/23 09:10:02;;;;;;;18.40;10.55;;;;;;;;;;10594157;27;20061;-76
2023/01/23 09:15:02;;;;;;;20.02;10.63;;;;;;;;;;10625638;27;20486;-75
2023/01/23 09:20:07;;;;;;;20.25;10.77;;;;;;;;;;10606954;27;20039;-76
2023/01/23 09:25:08;;;;;;;19.75;9.80;;;;;;;;;;10591977;27;20781;-74
2023/01/23 09:30:09;;;;;;;20.45;9.45;;;;;;;;;;10621810;27;20070;-76
2023/01/23 09:35:09;;;;;;;19.05;10.20;;;;;;;;;;10595932;27;20039;-78
2023/01/23 09:40:14;;;;;;;18.25;9.45;;;;;;;;;;10621266;27;20096;-75
2023/01/23 09:45:19;;;;;;;19.63;9.63;;;;;;;;;;10582745;27;20043;-76
2023/01/23 09:50:25;;;;;;;25.65;12.70;;;;;;;;;;10594838;27;20031;-77
2023/01/23 09:55:25;;;;;;;17.30;9.77;;;;;;;;;;10628762;27;20118;-77
2023/01/23 10:00:31;;;;;;;18.92;9.73;;;;;;;;;;10637501;27;20046;-76
2023/01/23 10:05:39;;;;;;;19.27;9.05;;;;;;;;;;10631532;27;20582;-77
2023/01/23 10:10:54;;;;;;;19.77;9.55;;;;;;;;;;10630013;27;20076;-77
2023/01/23 10:16:15;;;;;;;16.77;9.65;;;;;;;;;;10628396;27;20027;-76
2023/01/23 10:21:21;;;;;;;16.05;9.25;;;;;;;;;;10623652;27;20027;-75
2023/01/23 10:26:29;;;;;;;19.13;10.05;;;;;;;;;;10631135;27;20062;-76
2023/01/23 10:31:34;;;;;;;17.95;9.32;;;;;;;;;;10589432;27;20097;-75
2023/01/23 10:36:36;;;;;;;17.95;9.73;;;;;;;;;;10613116;27;20035;-76
2023/01/23 10:41:38;;;;;;;18.05;9.68;;;;;;;;;;10604494;27;20141;-76
2023/01/23 10:46:44;;;;;;;16.42;10.07;;;;;;;;;;10623454;27;20039;-76
2023/01/23 10:51:45;;;;;;;15.77;9.48;;;;;;;;;;10624095;27;20471;-77
2023/01/23 10:56:57;;;;;;;15.73;9.20;;;;;;;;;;10613803;27;20186;-76
2023/01/23 11:01:59;;;;;;;12.02;9.18;;;;;;;;;;10616551;27;20047;-78
2023/01/23 11:07:01;;;;;;;15.73;8.45;;;;;;;;;;10597828;27;20039;-78
2023/01/23 11:12:05;;;;;;;16.25;9.50;;;;;;;;;;10626909;27;20062;-77
2023/01/23 11:17:16;;;;;;;17.90;9.35;;;;;;;;;;10605135;27;20035;-79
2023/01/23 11:22:35;;;;;;;17.52;9.65;;;;;;;;;;10609160;27;20715;-75
2023/01/23 11:27:36;;;;;;;15.73;9.57;;;;;;;;;;10579270;27;20110;-77
2023/01/23 11:33:06;;;;;;;14.65;8.85;;;;;;;;;;10601194;27;20089;-77
2023/01/23 11:38:09;;;;;;;17.40;10.65;;;;;;;;;;10559812;27;20062;-76
2023/01/23 11:43:15;;;;;;;17.67;9.10;;;;;;;;;;10614040;27;20131;-76
2023/01/23 11:48:22;;;;;;;17.13;9.60;;;;;;;;;;10611587;27;20065;-76
2023/01/23 11:53:30;;;;;;;19.00;10.68;;;;;;;;;;10625185;27;20031;-76
2023/01/23 11:58:39;;;;;;;15.27;9.45;;;;;;;;;;10612475;27;20027;-75
2023/01/23 12:03:49;;;;;;;15.95;9.73;;;;;;;;;;10586627;27;20645;-75
2023/01/23 12:08:56;;;;;;;18.35;9.98;;;;;;;;;;10585918;27;20046;-74
2023/01/23 12:14:12;;;;;;;14.88;9.18;;;;;;;;;;10635876;27;20082;-76
2023/01/23 12:19:21;;;;;;;15.73;9.43;;;;;;;;;;10607784;27;20114;-74
2023/01/23 12:24:42;;;;;;;15.48;9.57;;;;;;;;;;10582365;27;20105;-75
2023/01/23 12:29:42;;;;;;;14.70;8.70;;;;;;;;;;10616560;27;20031;-74
2023/01/23 12:34:49;;;;;;;12.85;8.27;;;;;;;;;;10599029;27;20051;-75
2023/01/23 12:39:50;;;;;;;16.00;8.82;;;;;;;;;;10618987;27;20121;-75
2023/01/23 12:44:54;;;;;;;14.25;7.85;;;;;;;;;;10635111;27;20118;-75
2023/01/23 12:50:02;;;;;;;12.25;7.53;;;;;;;;;;10597287;27;20043;-76
2023/01/23 12:55:14;;;;;;;12.77;7.97;;;;;;;;;;10597423;27;20031;-80
2023/01/23 13:05:47;;;;;;;13.68;7.90;;;;;;;;;;10636393;27;20106;-80
2023/01/23 13:16:32;;;;;;;13.15;7.65;;;;;;;;;;10662969;27;20054;-83
2023/01/23 13:26:51;;;;;;;17.10;8.52;;;;;;;;;;10628685;27;20050;-76
2023/01/23 13:32:14;;;;;;;14.30;8.18;;;;;;;;;;10624371;27;20119;-78
2023/01/23 13:37:33;;;;;;;13.82;7.82;;;;;;;;;;10617381;27;20032;-77
2023/01/23 13:42:35;;;;;;;14.75;8.20;;;;;;;;;;10660695;27;20034;-81
2023/01/23 13:58:35;;;;;;;12.40;7.10;;;;;;;;;;10612835;27;20050;-82
2023/01/23 14:08:57;;;;;;;11.23;6.82;;;;;;;;;;10658955;27;20007;-81
2023/01/23 14:19:31;;;;;;;13.02;7.18;;;;;;;;;;10651313;27;20055;-81
2023/01/23 14:24:47;;;;;;;11.60;7.05;;;;;;;;;;10646326;27;20074;-85
2023/01/23 14:29:58;;;;;;;13.48;7.93;;;;;;;;;;10609787;27;20043;-77
2023/01/23 14:34:58;;;;;;;11.50;7.65;;;;;;;;;;10606226;27;20157;-80
2023/01/23 14:40:15;;;;;;;12.48;7.63;;;;;;;;;;10613395;27;20043;-78
2023/01/23 14:45:16;;;;;;;;;;;;;;;;;;10625672;27;20776;-81
2023/01/23 14:50:18;;;;;;;13.32;7.32;;;;;;;;;;10602081;27;19976;-81
2023/01/23 14:55:23;;;;;;;13.50;7.43;;;;;;;;;;10610060;27;20061;-77
2023/01/23 15:00:24;;;;;;;9.67;7.07;;;;;;;;;;10583135;27;20050;-78
2023/01/23 15:05:26;;;;;;;12.32;7.38;;;;;;;;;;10600138;27;20437;-78
2023/01/23 15:10:33;;;;;;;13.27;7.75;;;;;;;;;;10602581;22;20056;-79
2023/01/23 15:15:38;;;;;;;12.10;7.57;;;;;;;;;;10465720;28;20064;-80
2023/01/23 15:20:42;;;;;;;14.73;8.00;;;;;;;;;;10472288;28;20416;-79
2023/01/23 15:25:44;;;;;;;14.32;8.43;;;;;;;;;;10469919;28;20109;-77
2023/01/23 15:30:47;;;;;;;16.58;8.50;;;;;;;;;;10491253;28;20102;-78
2023/01/23 15:35:53;;;;;;;13.73;8.13;;;;;;;;;;10476933;28;20031;-81
2023/01/23 15:41:06;;;;;;;13.48;8.48;;;;;;;;;;10470454;28;20055;-81
2023/01/23 15:46:10;;;;;;;15.48;8.05;;;;;;;;;;10498091;28;20049;-77
2023/01/23 15:51:11;;;;;;;14.98;8.43;;;;;;;;;;10501699;28;20033;-78
2023/01/23 15:56:23;;;;;;;13.88;8.27;;;;;;;;;;10514783;28;20055;-78
2023/01/23 16:01:23;;;;;;;14.07;8.43;;;;;;;;;;10533421;28;20044;-78
2023/01/23 16:06:25;;;;;;;15.10;9.20;;;;;;;;;;10511964;28;20107;-80
2023/01/23 16:11:29;;;;;;;15.68;9.13;;;;;;;;;;10494583;28;20484;-78
2023/01/23 16:16:30;;;;;;;16.52;9.45;;;;;;;;;;10559184;28;20028;-78
2023/01/23 16:21:30;;;;;;;18.63;9.82;;;;;;;;;;10500585;28;20075;-78
2023/01/23 16:26:32;;;;;;;17.30;10.38;;;;;;;;;;10498841;28;20040;-78
2023/01/23 16:31:33;;;;;;;19.40;10.05;;;;;;;;;;10490310;28;20073;-78
2023/01/23 16:36:35;;;;;;;17.85;9.98;;;;;;;;;;10526037;28;20047;-78
2023/01/23 16:41:36;;;;;;;18.33;10.00;;;;;;;;;;10521465;28;20716;-78
2023/01/23 16:46:38;;;;;;;18.67;10.52;;;;;;;;;;10505931;28;20047;-80
2023/01/23 16:51:42;;;;;;;18.95;10.35;;;;;;;;;;10502437;28;20081;-78
2023/01/23 16:56:44;;;;;;;17.48;9.93;;;;;;;;;;10516575;28;20031;-76
2023/01/23 17:01:47;;;;;;;19.70;10.40;;;;;;;;;;10513880;28;20056;-77
2023/01/23 17:06:47;;;;;;;21.17;10.37;;;;;;;;;;10499572;28;20044;-78
2023/01/23 17:11:53;;;;;;;19.42;10.48;;;;;;;;;;10516595;28;20048;-78
2023/01/23 17:16:59;;;;;;;21.52;10.55;;;;;;;;;;10510452;28;20043;-77
2023/01/23 17:22:00;;;;;;;19.77;10.23;;;;;;;;;;10543592;28;20131;-78
2023/01/23 17:27:01;;;;;;;18.13;10.70;;;;;;;;;;10506161;28;20098;-79
2023/01/23 17:32:01;;;;;;;19.92;10.40;;;;;;;;;;10532695;28;20032;-81
2023/01/23 17:37:02;;;;;;;23.52;11.93;;;;;;;;;;10530540;28;20037;-79
2023/01/23 17:42:04;;;;;;;22.23;12.30;;;;;;;;;;10545913;28;20044;-78
2023/01/23 17:47:07;;;;;;;23.23;11.38;;;;;;;;;;10530120;28;20044;-79
2023/01/23 17:52:11;;;;;;;21.30;11.85;;;;;;;;;;10537723;28;20143;-82
2023/01/23 17:57:14;;;;;;;19.10;10.88;;;;;;;;;;10534326;28;20040;-79
2023/01/23 18:02:27;;;;;;;20.15;10.57;;;;;;;;;;10524938;28;20048;-79
2023/01/23 18:07:27;;;;;;;20.40;11.70;;;;;;;;;;10514870;28;20036;-85
2023/01/23 18:12:36;;;;;;;21.05;11.30;;;;;;;;;;10544889;28;20068;-80
2023/01/23 18:17:55;;;;;;;22.30;12.32;;;;;;;;;;10525295;28;20102;-81
2023/01/23 18:22:56;;;;;;;19.50;10.88;;;;;;;;;;10567445;28;20031;-79
2023/01/23 18:28:04;;;;;;;21.65;11.32;;;;;;;;;;10561123;28;20078;-79
2023/01/23 18:33:33;;;;;;;22.48;11.50;;;;;;;;;;10548388;28;20059;-79
2023/01/23 18:38:46;;;;;;;22.75;12.25;;;;;;;;;;10502164;28;20062;-81
2023/01/23 18:43:54;;;;;;;21.57;11.53;;;;;;;;;;10499410;28;20052;-79
2023/01/23 18:48:54;;;;;;;19.88;11.15;;;;;;;;;;10512622;28;20043;-81
2023/01/23 18:53:58;;;;;;;20.15;11.48;;;;;;;;;;10524640;28;20048;-77
2023/01/23 18:58:58;;;;;;;;;;;;;;;;;;10522175;28;20043;-77
2023/01/23 19:03:59;;;;;;;21.88;11.65;;;;;;;;;;10506489;28;19924;-81
2023/01/23 19:09:00;;;;;;;25.90;13.10;;;;;;;;;;10506663;28;20036;-83
2023/01/23 19:14:07;;;;;;;23.45;12.57;;;;;;;;;;10509146;28;20039;-79
2023/01/23 19:19:26;;;;;;;20.63;10.77;;;;;;;;;;10493517;28;20403;-81
2023/01/23 19:24:27;;;;;;;22.48;13.00;;;;;;;;;;10499500;28;20039;-80
2023/01/23 19:29:28;;;;;;;20.67;11.48;;;;;;;;;;10513415;28;20032;-80
2023/01/23 19:34:28;;;;;;;18.90;11.25;;;;;;;;;;10523708;28;20464;-83
2023/01/23 19:39:29;;;;;;;21.58;10.77;;;;;;;;;;10502261;28;20105;-78
2023/01/23 19:44:32;;;;;;;18.88;10.85;;;;;;;;;;10511430;28;20495;-82
2023/01/23 19:49:35;;;;;;;18.17;11.00;;;;;;;;;;10524681;28;20089;-84
2023/01/23 19:54:37;;;;;;;18.65;11.07;;;;;;;;;;10520994;28;20436;-83
2023/01/23 19:59:38;;;;;;;18.45;10.75;;;;;;;;;;10528280;28;20035;-84
2023/01/23 20:04:39;;;;;;;16.27;9.70;;;;;;;;;;10530726;28;20052;-83
2023/01/23 20:09:39;;;;;;;18.03;10.00;;;;;;;;;;10564186;28;20347;-83
2023/01/23 20:14:40;;;;;;;17.52;9.85;;;;;;;;;;10562524;28;20297;-85
2023/01/23 20:19:40;;;;;;;17.95;10.68;;;;;;;;;;10547769;28;20066;-81
2023/01/23 20:24:43;;;;;;;20.95;11.13;;;;;;;;;;10540198;28;20099;-82
2023/01/23 20:29:49;;;;;;;20.90;10.77;;;;;;;;;;10561328;28;20036;-80
2023/01/23 20:34:49;;;;;;;21.35;11.05;;;;;;;;;;10559406;28;20109;-81
2023/01/23 20:39:50;;;;;;;19.52;11.00;;;;;;;;;;10511490;28;20096;-79
2023/01/23 20:44:50;;;;;;;21.00;11.57;;;;;;;;;;10505030;28;20163;-79
2023/01/23 20:49:50;;;;;;;19.70;9.93;;;;;;;;;;10531190;28;20139;-78
2023/01/23 20:54:51;;;;;;;19.83;11.65;;;;;;;;;;10501502;28;20075;-80
2023/01/23 20:59:51;;;;;;;20.20;11.00;;;;;;;;;;10520377;28;20519;-80
2023/01/23 21:04:52;;;;;;;18.60;10.55;;;;;;;;;;10499179;28;20075;-81
2023/01/23 21:09:52;;;;;;;19.67;10.52;;;;;;;;;;10513997;28;20090;-80
2023/01/23 21:14:53;;;;;;;19.85;9.95;;;;;;;;;;10480835;28;20040;-79
2023/01/23 21:19:53;;;;;;;18.90;11.27;;;;;;;;;;10515904;28;20373;-78
2023/01/23 21:24:53;;;;;;;20.20;11.00;;;;;;;;;;10524066;28;20809;-81
2023/01/23 21:29:54;;;;;;;19.05;10.50;;;;;;;;;;10515674;28;20285;-81
2023/01/23 21:34:54;;;;;;;19.67;10.90;;;;;;;;;;10509617;28;20391;-79
2023/01/23 21:39:54;;;;;;;19.40;10.93;;;;;;;;;;10504300;28;20044;-80
2023/01/23 21:44:56;;;;;;;21.73;10.88;;;;;;;;;;10507945;28;20076;-78
2023/01/23 21:49:57;;;;;;;18.13;9.80;;;;;;;;;;10500444;28;20685;-80
2023/01/23 21:54:58;;;;;;;18.90;10.70;;;;;;;;;;10486647;28;20035;-82
2023/01/23 22:05:18;;;;;;;18.27;9.82;;;;;;;;;;10513999;28;20476;-80
2023/01/23 22:10:18;;;;;;;17.85;10.10;;;;;;;;;;10487581;28;20044;-79
2023/01/23 22:15:19;;;;;;;20.73;11.50;;;;;;;;;;10514357;28;20029;-80
2023/01/23 22:20:19;;;;;;;17.13;9.65;;;;;;;;;;10529843;28;20043;-82
2023/01/23 22:25:20;;;;;;;16.48;10.23;;;;;;;;;;10517788;28;20047;-81
2023/01/23 22:30:21;;;;;;;19.80;10.23;;;;;;;;;;10506713;28;20028;-79
2023/01/23 22:35:21;;;;;;;17.35;9.57;;;;;;;;;;10510775;28;20036;-78
2023/01/23 22:40:22;;;;;;;18.48;9.88;;;;;;;;;;10509490;28;20040;-82
2023/01/23 22:45:23;;;;;;;19.05;10.63;;;;;;;;;;10498416;28;20053;-78
2023/01/23 22:50:24;;;;;;;15.23;9.60;;;;;;;;;;10515791;28;20044;-79
2023/01/23 22:55:24;;;;;;;18.35;10.13;;;;;;;;;;10523104;28;20119;-77
2023/01/23 23:00:25;;;;;;;17.50;9.43;;;;;;;;;;10542585;28;20020;-79
2023/01/23 23:05:25;;;;;;;18.53;10.60;;;;;;;;;;10557325;28;20085;-82
2023/01/23 23:10:25;;;;;;;16.00;9.52;;;;;;;;;;10573922;27;20266;-81
2023/01/23 23:15:28;;;;;;;17.47;9.40;;;;;;;;;;10567879;28;20039;-81
2023/01/23 23:20:30;;;;;;;16.63;10.43;;;;;;;;;;10531998;28;20032;-82
2023/01/23 23:25:33;;;;;;;16.35;9.32;;;;;;;;;;10510680;28;20051;-78
2023/01/23 23:30:33;;;;;;;15.90;9.63;;;;;;;;;;10527063;28;20131;-79
2023/01/23 23:35:34;;;;;;;18.50;9.82;;;;;;;;;;10529602;28;20067;-79
2023/01/23 23:40:35;;;;;;;17.65;9.52;;;;;;;;;;10518518;28;20040;-79
2023/01/23 23:45:36;;;;;;;17.10;8.63;;;;;;;;;;10507095;28;20054;-78
2023/01/23 23:50:36;;;;;;;16.77;9.02;;;;;;;;;;10502427;28;20040;-81
2023/01/23 23:55:37;;;;;;;16.52;9.07;;;;;;;;;;10511336;28;20808;-77
